Time;durP1;ratioP1;P1;durP2;ratioP2;P2;SDS_P1;SDS_P2;PMS_P1;PMS_P2;Temp;Humidity;BMP_temperature;BMP_pressure;BME280_temperature;BME280_humidity;BME280_pressure;Samples;Min_cycle;Max_cycle;Signal;HPM_P1;HPM_P2
2021/11/01 00:00:12;;;;;;;1.35;1.25;;;19.80;49.50;;;23.71;32.93;99414.84;5072070;28;20040;-8
2021/11/01 00:02:38;;;;;;;1.80;1.23;;;19.80;49.50;;;23.74;33.16;99421.69;5072658;28;20045;-8
2021/11/01 00:05:05;;;;;;;1.30;1.20;;;19.80;49.60;;;23.74;32.87;99425.22;5071985;28;20401;-8
2021/11/01 00:07:31;;;;;;;1.67;1.58;;;19.80;49.60;;;23.73;33.09;99426.19;5072471;28;20048;-8
2021/11/01 00:09:57;;;;;;;1.23;1.13;;;19.80;49.60;;;23.75;32.97;99426.06;5071813;28;20479;-8
2021/11/01 00:12:27;;;;;;;1.45;1.35;;;19.80;49.50;;;23.75;33.04;99436.72;5071826;28;20057;-8
2021/11/01 00:14:53;;;;;;;1.55;1.45;;;19.80;49.40;;;23.73;32.97;99434.22;5072173;28;20049;-8
2021/11/01 00:17:19;;;;;;;1.40;1.30;;;19.80;49.30;;;23.76;33.11;99433.91;5072208;28;20063;-8
2021/11/01 00:19:45;;;;;;;1.40;1.30;;;19.90;49.30;;;23.76;32.82;99441.91;5071753;28;20048;-8
2021/11/01 00:22:11;;;;;;;1.38;1.27;;;19.80;49.30;;;23.75;32.87;99442.06;5071785;28;20045;-8
2021/11/01 00:24:37;;;;;;;1.38;1.27;;;19.80;49.40;;;23.77;33.12;99442.75;5072117;28;20059;-8
2021/11/01 00:27:02;;;;;;;1.50;1.40;;;19.80;49.30;;;23.75;32.95;99444.75;5071764;28;20048;-8
2021/11/01 00:29:28;;;;;;;1.33;1.23;;;19.80;49.50;;;23.74;33.00;99456.38;5069863;28;20355;-8
2021/11/01 00:31:54;;;;;;;1.30;1.20;;;19.80;49.50;;;23.75;32.94;99474.94;5074720;28;20044;-8
2021/11/01 00:34:20;;;;;;;2.55;1.48;;;19.80;49.50;;;23.72;32.83;99440.53;5075453;28;20048;-8
2021/11/01 00:36:46;;;;;;;1.73;1.40;;;19.80;49.50;;;23.76;32.97;99449.94;5075091;28;20044;-8
2021/11/01 00:39:12;;;;;;;1.73;1.45;;;19.80;49.40;;;23.75;33.00;99434.88;5075287;28;20101;-9
2021/11/01 00:41:39;;;;;;;1.30;1.20;;;19.80;49.40;;;23.73;32.91;99428.88;5075663;28;20059;-8
2021/11/01 00:44:06;;;;;;;1.42;1.33;;;19.80;49.50;;;23.74;33.01;99435.91;5075016;28;20090;-8
2021/11/01 00:46:32;;;;;;;1.55;1.45;;;19.80;49.50;;;23.73;33.08;99436.88;5074876;28;20477;-8
2021/11/01 00:48:58;;;;;;;1.50;1.40;;;19.80;49.50;;;23.72;32.96;99437.84;5074980;28;20045;-8
2021/11/01 00:51:24;;;;;;;1.70;1.60;;;19.80;49.50;;;23.73;32.96;99433.38;5074815;28;20090;-8
2021/11/01 00:53:50;;;;;;;1.40;1.30;;;19.70;49.50;;;23.71;32.94;99435.34;5074705;28;20052;-8
2021/11/01 00:56:17;;;;;;;1.50;1.40;;;19.80;49.50;;;23.72;33.09;99437.84;5074960;28;20109;-8
2021/11/01 00:58:43;;;;;;;1.30;1.20;;;19.70;49.40;;;23.73;33.17;99444.06;5074640;28;20143;-8
2021/11/01 01:01:10;;;;;;;1.52;1.42;;;19.80;49.50;;;23.73;32.99;99447.56;5074733;28;20393;-8
2021/11/01 01:03:36;;;;;;;1.38;1.27;;;19.80;50.00;;;23.72;32.97;99447.69;5074609;28;20094;-8
2021/11/01 01:06:03;;;;;;;1.30;1.20;;;19.80;49.50;;;23.75;32.85;99452.75;5074718;28;20071;-8
2021/11/01 01:08:29;;;;;;;1.40;1.30;;;19.80;49.40;;;23.76;33.13;99462.44;5074314;28;20189;-8
2021/11/01 01:10:55;;;;;;;1.48;1.38;;;19.80;49.40;;;23.72;33.12;99461.88;5074554;28;20048;-8
2021/11/01 01:13:24;;;;;;;1.20;1.10;;;19.80;49.40;;;23.74;33.18;99469.72;5074843;28;20036;-8
2021/11/01 01:16:38;;;;;;;1.38;1.27;;;19.80;49.50;;;23.74;33.09;99457.25;5074683;28;20052;-8
2021/11/01 01:18:39;;;;;;;1.30;1.20;;;19.80;49.50;;;23.74;33.00;99451.91;5065850;28;20058;-8
2021/11/01 01:23:51;;;;;;;1.33;1.23;;;19.80;49.50;;;23.74;32.88;99470.59;5074267;28;20103;-8
2021/11/01 01:26:17;;;;;;;1.45;1.35;;;19.80;49.50;;;23.75;33.11;99466.09;5074153;28;20048;-9
2021/11/01 01:28:44;;;;;;;1.58;1.48;;;19.80;49.60;;;23.73;32.88;99478.75;5074124;28;20061;-8
2021/11/01 01:31:10;;;;;;;1.65;1.35;;;19.80;49.50;;;23.73;32.85;99487.59;5074115;28;20067;-8
2021/11/01 01:33:37;;;;;;;1.27;1.20;;;19.80;49.60;;;23.71;33.04;99497.56;5074074;28;20048;-8
2021/11/01 01:36:04;;;;;;;1.65;1.55;;;19.70;49.60;;;23.68;33.05;99489.84;5074472;28;20397;-9
2021/11/01 01:38:30;;;;;;;1.50;1.40;;;19.80;49.60;;;23.73;32.89;99497.44;5074050;28;20052;-8
2021/11/01 01:40:56;;;;;;;1.42;1.33;;;19.80;49.70;;;23.72;32.91;99498.41;5074659;28;20049;-8
2021/11/01 01:43:23;;;;;;;1.45;1.35;;;19.80;49.60;;;23.72;33.09;99509.06;5073624;28;20056;-8
2021/11/01 01:45:49;;;;;;;1.33;1.23;;;19.70;49.60;;;23.68;32.97;99490.69;5073045;28;20055;-8
2021/11/01 01:48:18;;;;;;;1.27;1.17;;;19.80;49.70;;;23.73;32.97;99492.09;5073692;28;20411;-8
2021/11/01 01:50:45;;;;;;;1.40;1.30;;;19.80;49.70;;;23.71;33.18;99497.56;5074238;28;20045;-8
2021/11/01 01:53:11;;;;;;;1.48;1.38;;;19.70;49.60;;;23.72;33.17;99503.75;5073859;28;20044;-8
2021/11/01 01:55:37;;;;;;;1.60;1.50;;;19.80;49.60;;;23.71;32.98;99504.75;5074180;28;20051;-8
2021/11/01 01:58:03;;;;;;;1.60;1.50;;;19.80;49.60;;;23.73;33.17;99487.59;5073732;28;20056;-8
2021/11/01 02:00:50;;;;;;;1.50;1.40;;;19.80;49.60;;;23.72;32.85;99485.88;5074166;28;20083;-8
2021/11/01 02:03:16;;;;;;;1.40;1.30;;;19.70;49.60;;;23.72;33.09;99485.06;5074291;28;20045;-8
2021/11/01 02:05:55;;;;;;;1.92;1.77;;;19.80;49.60;;;23.70;32.98;99487.03;5073717;28;20048;-8
2021/11/01 02:08:21;;;;;;;1.30;1.20;;;19.80;49.70;;;23.72;33.00;99483.22;5055833;28;20143;-8
2021/11/01 02:11:11;;;;;;;1.60;1.50;;;19.80;49.70;;;23.74;32.93;99480.41;5071420;28;20041;-8
2021/11/01 02:13:44;;;;;;;1.52;1.42;;;19.80;49.70;;;23.70;32.99;99469.19;5073677;28;20059;-8
2021/11/01 02:16:14;;;;;;;1.60;1.50;;;19.70;49.70;;;23.71;33.15;99475.38;5056195;28;20052;-9
2021/11/01 02:18:44;;;;;;;1.03;0.93;;;19.80;49.60;;;23.73;33.03;99476.06;5073694;28;20128;-8
2021/11/01 02:21:23;;;;;;;1.40;1.30;;;19.80;49.60;;;23.71;33.00;99472.72;5055602;28;20041;-8
2021/11/01 02:24:05;;;;;;;1.40;1.30;;;19.70;49.60;;;23.73;33.16;99489.41;5054651;28;20056;-8
2021/11/01 02:26:38;;;;;;;1.40;1.30;;;19.70;49.70;;;23.71;33.00;99491.41;5055356;28;20113;-8
2021/11/01 02:29:05;;;;;;;1.42;1.33;;;19.70;49.70;;;23.72;33.21;99493.06;5055393;28;20048;-8
2021/11/01 02:31:33;;;;;;;1.38;1.27;;;19.70;49.60;;;23.70;33.14;99479.88;5073384;28;20044;-8
2021/11/01 02:34:01;;;;;;;1.50;1.40;;;19.70;49.70;;;23.70;32.96;99465.69;5073393;28;20400;-8
2021/11/01 02:36:28;;;;;;;1.40;1.30;;;19.70;49.70;;;23.67;33.11;99467.66;5073023;28;20508;-8
2021/11/01 02:38:58;;;;;;;1.20;1.10;;;19.70;49.70;;;23.65;33.17;99458.13;5072911;28;20056;-8
2021/11/01 02:41:28;;;;;;;1.33;1.23;;;19.70;49.70;;;23.70;33.19;99465.69;5038190;28;20460;-8
2021/11/01 02:43:57;;;;;;;1.67;1.58;;;19.70;49.80;;;23.67;33.16;99459.66;5073313;28;20044;-8
2021/11/01 02:46:25;;;;;;;1.55;1.45;;;19.70;49.70;;;23.67;33.01;99453.47;5072976;28;20052;-8
2021/11/01 02:48:52;;;;;;;1.50;1.40;;;19.70;49.60;;;23.66;32.99;99449.97;5069680;28;20045;-8
2021/11/01 02:51:19;;;;;;;1.63;1.52;;;19.70;49.70;;;23.68;33.10;99461.31;5073139;28;20405;-8
2021/11/01 02:53:50;;;;;;;1.58;1.48;;;19.70;49.70;;;23.66;33.19;99449.13;5072671;28;20090;-8
2021/11/01 02:56:17;;;;;;;1.45;1.35;;;19.70;49.70;;;23.68;33.20;99447.16;5073094;28;20064;-8
2021/11/01 02:58:43;;;;;;;1.52;1.42;;;19.70;49.70;;;23.66;33.12;99443.81;5073062;28;20075;-8
2021/11/01 03:01:13;;;;;;;1.50;1.40;;;19.70;49.70;;;23.68;33.15;99458.66;5072660;28;20080;-8
2021/11/01 03:03:39;;;;;;;1.40;1.30;;;19.70;49.70;;;23.68;33.02;99450.66;5073117;28;20127;-8
2021/11/01 03:06:06;;;;;;;1.52;1.42;;;19.70;49.70;;;23.66;33.24;99454.47;5072720;28;20067;-8
2021/11/01 03:08:33;;;;;;;1.55;1.45;;;19.70;49.80;;;23.66;33.23;99457.97;5071367;28;20043;-8
2021/11/01 03:11:01;;;;;;;1.52;1.40;;;19.70;49.70;;;23.65;32.99;99458.13;5072704;28;20041;-8
2021/11/01 03:13:30;;;;;;;1.30;1.20;;;19.70;49.60;;;23.66;33.19;99457.97;5072765;28;20044;-8
2021/11/01 03:15:57;;;;;;;1.27;1.17;;;19.70;49.60;;;23.70;33.03;99465.69;5072605;28;20481;-9
2021/11/01 03:18:33;;;;;;;1.40;1.30;;;19.70;49.60;;;23.68;33.18;99473.84;5072679;28;20136;-8
2021/11/01 03:21:01;;;;;;;1.50;1.40;;;19.80;49.70;;;23.67;33.33;99459.66;5038681;28;20538;-8
2021/11/01 03:23:30;;;;;;;1.30;1.20;;;19.80;49.60;;;23.65;33.18;99468.78;5072542;28;20059;-8
2021/11/01 03:26:02;;;;;;;1.52;1.42;;;19.70;49.70;;;23.67;32.95;99474.81;5055129;28;20041;-8
2021/11/01 03:28:31;;;;;;;1.38;1.27;;;19.70;49.60;;;23.70;33.06;99484.38;5072969;28;20103;-8
2021/11/01 03:31:01;;;;;;;1.35;1.20;;;19.80;49.60;;;23.65;33.23;99480.28;5072520;28;20040;-8
2021/11/01 03:33:37;;;;;;;1.20;1.10;;;19.80;49.60;;;23.67;33.18;99472.16;5072488;28;20098;-9
2021/11/01 03:36:05;;;;;;;1.33;1.23;;;19.80;49.50;;;23.66;32.92;99473.97;5072766;28;20063;-8
2021/11/01 03:38:31;;;;;;;1.38;1.27;;;19.80;49.60;;;23.68;33.16;99488.00;5072321;28;20052;-8
2021/11/01 03:40:58;;;;;;;1.30;1.20;;;19.70;49.60;;;23.65;32.99;99484.81;5072412;28;20068;-8
2021/11/01 03:43:28;;;;;;;1.40;1.30;;;19.70;49.80;;;23.65;33.02;99495.47;5054475;28;20139;-8
2021/11/01 03:45:58;;;;;;;1.63;1.52;;;19.70;49.80;;;23.64;33.29;99499.16;5072239;28;20044;-8
2021/11/01 03:48:25;;;;;;;1.30;1.20;;;19.70;49.70;;;23.65;33.20;99506.97;5054568;28;20072;-8
2021/11/01 03:53:42;;;;;;;1.45;1.35;;;19.70;49.70;;;23.67;33.19;99507.69;5063439;28;20051;-8
2021/11/01 03:56:08;;;;;;;1.20;1.10;;;19.70;49.70;;;23.65;33.20;99517.66;5071870;28;20057;-8
2021/11/01 03:58:34;;;;;;;1.60;1.48;;;19.80;49.70;;;23.67;33.08;99513.03;5069045;28;20064;-8
2021/11/01 04:01:00;;;;;;;1.42;1.33;;;19.80;49.60;;;23.67;33.18;99510.38;5072334;28;20055;-8
2021/11/01 04:03:28;;;;;;;1.35;1.25;;;19.80;49.70;;;23.66;33.23;99510.50;5072056;28;20036;-8
2021/11/01 04:06:02;;;;;;;1.20;1.10;;;19.70;49.80;;;23.66;33.18;99513.19;5073583;28;20044;-8
2021/11/01 04:08:30;;;;;;;1.48;1.27;;;19.70;49.80;;;23.66;33.08;99519.34;5075943;28;20060;-8
2021/11/01 04:10:56;;;;;;;1.40;1.30;;;19.70;49.90;;;23.65;33.33;99498.16;5075352;28;20054;-8
2021/11/01 04:13:23;;;;;;;1.40;1.30;;;19.70;49.70;;;23.65;33.18;99506.16;5075526;28;20044;-8
2021/11/01 04:16:01;;;;;;;1.40;1.30;;;19.80;49.60;;;23.65;33.39;99503.47;5075492;28;20049;-8
2021/11/01 04:18:36;;;;;;;1.40;1.30;;;19.90;49.40;;;23.66;33.31;99505.16;5075346;28;20044;-8
2021/11/01 04:21:06;;;;;;;1.45;1.35;;;19.90;49.60;;;23.71;33.15;99502.06;5075380;28;20048;-8
2021/11/01 04:23:33;;;;;;;1.45;1.35;;;19.80;49.60;;;23.72;33.25;99509.06;5075361;28;20051;-8
2021/11/01 04:26:01;;;;;;;1.40;1.30;;;19.80;49.60;;;23.70;33.28;99493.22;5075327;28;20055;-8
2021/11/01 04:28:27;;;;;;;1.52;1.42;;;19.80;49.70;;;23.74;33.13;99507.09;5075449;28;20052;-8
2021/11/01 04:31:01;;;;;;;1.55;1.45;;;19.80;49.70;;;23.74;33.25;99512.44;5075665;28;20048;-8
2021/11/01 04:33:28;;;;;;;1.50;1.40;;;19.80;49.70;;;23.76;33.38;99513.97;5075138;28;20135;-8
2021/11/01 04:35:54;;;;;;;1.40;1.30;;;19.80;49.70;;;23.76;33.13;99515.81;5075249;28;20132;-8
2021/11/01 04:38:40;;;;;;;1.52;1.40;;;19.80;49.60;;;23.76;33.27;99513.97;5075305;28;20072;-8
2021/11/01 04:41:19;;;;;;;1.33;1.23;;;19.80;49.70;;;23.79;33.14;99516.38;5075064;28;20049;-8
2021/11/01 04:54:44;;;;;;;1.50;1.40;;;19.90;49.40;;;23.87;33.24;99526.31;5073299;28;20049;-7
2021/11/01 04:57:10;;;;;;;1.60;1.50;;;20.00;49.40;;;23.88;33.04;99519.19;5074610;28;20052;-8
2021/11/01 04:59:39;;;;;;;1.30;1.20;;;20.00;49.30;;;23.90;33.25;99523.38;5074795;28;20056;-8
2021/11/01 05:02:05;;;;;;;1.45;1.35;;;20.00;49.30;;;23.91;33.23;99509.03;5074913;28;20049;-8
2021/11/01 05:04:34;;;;;;;1.55;1.45;;;20.10;49.20;;;23.95;32.97;99515.75;5074742;28;20130;-8
2021/11/01 05:07:03;;;;;;;1.70;1.60;;;20.10;49.20;;;23.95;33.01;99513.09;5074466;28;20048;-8
2021/11/01 05:10:19;;;;;;;1.40;1.30;;;20.10;49.60;;;24.02;33.17;99529.34;5056929;28;20040;-8
2021/11/01 05:12:26;;;;;;;1.42;1.33;;;20.10;49.10;;;24.05;33.07;99521.06;5066232;28;20048;-8
2021/11/01 05:14:58;;;;;;;1.25;1.15;;;20.20;49.10;;;24.07;32.94;99524.41;5074885;28;20049;-8
2021/11/01 05:17:40;;;;;;;1.50;1.40;;;20.20;49.00;;;24.08;32.99;99535.97;5072780;28;20055;-8
2021/11/01 05:20:21;;;;;;;1.30;1.20;;;20.20;49.00;;;24.08;32.80;99543.97;5074402;28;20068;-8
2021/11/01 05:25:32;;;;;;;1.30;1.20;;;20.20;48.90;;;24.14;32.97;99540.69;5074648;28;20048;-8
2021/11/01 05:28:07;;;;;;;1.33;1.23;;;20.20;48.90;;;24.15;32.97;99540.53;5074235;28;20048;-8
2021/11/01 05:30:51;;;;;;;1.40;1.30;;;20.20;48.90;;;24.16;32.96;99544.91;5074307;28;20049;-8
2021/11/01 05:33:46;;;;;;;1.40;1.30;;;20.20;48.90;;;24.17;32.92;99545.75;5074907;28;20163;-8
2021/11/01 05:36:11;;;;;;;1.38;1.27;;;20.20;48.90;;;24.20;32.64;99538.25;5074243;28;20470;-8
2021/11/01 05:38:37;;;;;;;1.50;1.40;;;20.30;49.50;;;24.21;32.86;99544.47;5074320;28;20132;-7
2021/11/01 05:41:03;;;;;;;1.55;1.45;;;20.20;48.90;;;24.20;32.83;99537.44;5054131;28;20445;-8
2021/11/01 05:43:29;;;;;;;1.55;1.45;;;20.20;48.90;;;24.23;32.90;99542.47;5056719;28;20057;-8
2021/11/01 05:45:56;;;;;;;1.58;1.40;;;20.20;48.90;;;24.21;32.85;99542.63;5074039;28;20052;-8
2021/11/01 05:48:21;;;;;;;1.30;1.20;;;20.20;48.90;;;24.22;32.79;99535.44;5073831;28;20071;-8
2021/11/01 05:50:47;;;;;;;1.35;1.25;;;20.30;48.90;;;24.26;32.78;99546.66;5073941;28;20484;-8
2021/11/01 05:53:14;;;;;;;1.88;1.20;;;20.30;48.90;;;24.25;32.61;99540.50;5074472;28;20477;-8
2021/11/01 05:55:53;;;;;;;1.70;1.60;;;20.30;48.90;;;24.26;32.68;99541.31;5073896;28;20055;-8
2021/11/01 05:59:23;;;;;;;1.20;1.10;;;20.30;48.90;;;24.28;32.69;99539.38;5073922;28;20044;-8
2021/11/01 06:04:02;;;;;;;1.80;1.60;;;20.30;48.80;;;24.31;32.73;99547.94;5073849;28;20088;-8
2021/11/01 06:06:41;;;;;;;1.45;1.35;;;20.30;48.90;;;24.27;32.63;99554.53;5073228;28;20048;-8
2021/11/01 06:14:33;;;;;;;1.35;1.23;;;20.30;48.90;;;24.29;32.55;99554.41;5073595;28;20048;-8
2021/11/01 06:17:00;;;;;;;1.33;1.23;;;20.30;48.80;;;24.29;32.77;99552.59;5073456;28;20489;-8
2021/11/01 06:19:26;;;;;;;2.03;1.42;;;20.30;48.90;;;24.30;32.51;99558.75;5073308;28;20060;-8
2021/11/01 06:21:53;;;;;;;1.30;1.20;;;20.30;48.90;;;24.31;32.73;99563.94;5073433;28;20467;-8
2021/11/01 06:26:50;;;;;;;1.20;1.10;;;20.30;48.80;;;24.36;32.69;99568.84;5073476;28;20566;-8
2021/11/01 06:29:20;;;;;;;1.40;1.30;;;20.30;48.80;;;24.34;32.73;99565.47;5073215;28;20044;-8
2021/11/01 06:31:58;;;;;;;1.30;1.20;;;20.30;48.80;;;24.36;32.63;99571.53;5073356;28;20068;-8
2021/11/01 06:34:38;;;;;;;1.33;1.17;;;20.30;48.80;;;24.34;32.51;99558.31;5073592;28;20098;-8
2021/11/01 06:42:30;;;;;;;3.42;1.30;;;20.40;49.00;;;24.41;32.75;99567.41;5052925;28;20120;-8
2021/11/01 06:51:05;;;;;;;2.03;1.38;;;20.40;49.20;;;24.45;32.65;99570.63;5058655;28;20045;-13
2021/11/01 06:56:28;;;;;;;3.80;1.48;;;20.60;48.90;;;24.56;32.48;99581.16;5052655;28;20041;-12
2021/11/01 07:15:19;;;;;;;4.05;1.80;;;21.00;48.40;;;24.81;32.52;99609.97;5028470;28;20586;-15
2021/11/01 07:17:58;;;;;;;2.95;1.50;;;21.00;48.40;;;24.81;32.38;99613.50;5042960;28;20053;-13
2021/11/01 07:20:47;;;;;;;2.55;1.67;;;21.00;48.50;;;24.82;32.44;99604.47;5034895;28;20048;-12
2021/11/01 07:23:51;;;;;;;2.10;1.50;;;21.00;48.70;;;24.84;32.38;99607.00;5052405;28;20060;-12
2021/11/01 07:30:06;;;;;;;3.38;1.40;;;20.90;48.80;;;24.85;32.56;99614.88;5052812;28;20079;-12
2021/11/01 08:21:29;;;;;;;2.42;1.90;;;20.80;49.00;;;24.93;32.43;99647.03;5031998;28;20047;-12
2021/11/01 08:45:19;;;;;;;4.68;1.77;;;20.90;48.80;;;25.02;32.19;99634.59;5054762;28;20056;-12
2021/11/01 08:48:06;;;;;;;2.97;1.77;;;20.90;48.80;;;25.03;32.17;99627.44;5054418;28;20037;-13
2021/11/01 09:01:45;;;;;;;3.03;2.00;;;20.90;48.80;;;25.06;32.22;99638.66;5054517;28;20064;-13
2021/11/01 09:20:21;;;;;;;7.43;2.42;;;21.10;48.60;;;25.15;32.10;99621.69;5054290;28;20049;-13
2021/11/01 09:28:12;;;;;;;4.22;1.85;;;21.10;48.70;;;25.20;32.18;99645.31;5053279;28;20472;-14
2021/11/01 09:35:50;;;;;;;5.65;2.08;;;21.00;48.60;;;25.18;32.03;99636.59;5054514;28;20052;-12
2021/11/01 09:36:24;;;;;;;5.00;1.88;;;21.00;48.60;;;25.17;32.15;99636.75;5054249;28;20048;-13
2021/11/01 09:41:38;;;;;;;5.80;2.13;;;21.00;48.70;;;25.21;32.08;99646.16;5054055;28;20040;-12
2021/11/01 09:44:09;;;;;;;5.03;1.92;;;21.00;48.60;;;25.20;32.08;99644.47;5053876;28;20558;-11
2021/11/01 09:46:36;;;;;;;4.45;1.98;;;21.00;48.50;;;25.21;32.05;99649.69;5054341;28;20083;-11
2021/11/01 09:49:14;;;;;;;3.03;2.05;;;21.00;48.50;;;25.18;32.15;99657.19;5053487;28;20143;-12
2021/11/01 09:51:52;;;;;;;5.32;1.88;;;21.00;48.60;;;25.21;31.95;99667.53;5054358;28;20085;-12
2021/11/01 09:54:25;;;;;;;9.88;2.22;;;21.00;48.60;;;25.22;32.14;99656.69;5053174;28;20049;-12
2021/11/01 09:57:04;;;;;;;5.88;2.47;;;21.00;48.60;;;25.19;32.07;99657.00;5053618;28;20049;-11
2021/11/01 09:59:38;;;;;;;4.75;2.30;;;21.00;48.60;;;25.19;32.10;99661.50;5053618;28;20053;-12
2021/11/01 10:02:08;;;;;;;7.35;2.15;;;21.00;48.70;;;25.18;31.97;99662.53;5054043;28;20049;-11
2021/11/01 10:04:35;;;;;;;5.05;2.20;;;21.00;48.60;;;25.22;31.96;99672.75;5053040;28;20079;-11
2021/11/01 10:07:19;;;;;;;6.93;1.83;;;21.00;48.70;;;25.21;32.01;99668.41;5053863;28;20049;-11
2021/11/01 10:10:15;;;;;;;5.55;2.42;;;21.00;48.70;;;25.24;32.13;99670.78;5052597;28;20045;-12
2021/11/01 10:12:48;;;;;;;5.75;2.30;;;21.00;48.70;;;25.21;32.00;99668.41;5046894;28;20132;-12
2021/11/01 10:18:14;;;;;;;9.50;2.28;;;21.00;48.70;;;25.21;32.01;99662.19;5050252;28;20033;-13
2021/11/01 10:20:55;;;;;;;4.82;1.80;;;21.00;48.60;;;25.23;32.02;99671.75;5053207;28;20049;-13
2021/11/01 10:23:28;;;;;;;5.82;2.65;;;21.00;49.00;;;25.24;31.96;99670.78;5052418;28;20048;-13
2021/11/01 10:26:14;;;;;;;6.85;2.10;;;21.00;48.60;;;25.25;32.02;99661.75;5052507;28;20049;-14
2021/11/01 10:28:41;;;;;;;7.43;2.25;;;21.10;48.50;;;25.28;31.97;99676.69;5030834;28;20049;-13
2021/11/01 10:31:09;;;;;;;4.68;2.10;;;21.10;48.50;;;25.28;31.97;99658.81;5052892;28;20110;-14
2021/11/01 10:33:45;;;;;;;5.53;1.98;;;21.10;48.30;;;25.28;31.80;99652.63;5053073;28;20053;-13
2021/11/01 10:36:30;;;;;;;4.45;2.00;;;21.10;48.30;;;25.27;31.88;99650.94;5053107;28;20047;-13
2021/11/01 10:39:03;;;;;;;6.78;2.13;;;21.10;48.40;;;25.31;31.83;99657.69;5053280;28;20053;-14
2021/11/01 10:45:00;;;;;;;4.47;2.17;;;21.20;48.20;;;25.31;31.92;99639.78;5052981;28;20393;-14
2021/11/01 11:12:30;;;;;;;4.75;2.20;;;21.10;48.20;;;25.31;31.82;99634.44;5052402;28;20075;-15
2021/11/01 11:15:05;;;;;;;6.70;1.80;;;21.10;48.20;;;25.33;31.84;99632.44;5051770;28;20053;-15
2021/11/01 11:17:44;;;;;;;5.38;2.10;;;21.20;48.20;;;25.32;31.72;99628.06;5051813;28;20051;-15
2021/11/01 11:20:41;;;;;;;2.97;1.90;;;21.20;48.20;;;25.36;31.72;99625.94;5050957;28;20505;-15
2021/11/01 11:29:03;;;;;;;3.13;1.80;;;21.30;48.00;;;25.40;31.56;99621.94;5052064;28;20420;-15
2021/11/01 11:32:14;;;;;;;3.42;2.03;;;21.30;47.90;;;25.42;31.72;99622.63;5052133;28;20076;-15
2021/11/01 11:38:13;;;;;;;4.70;2.08;;;21.30;47.90;;;25.44;31.67;99633.19;5032930;28;20053;-15
2021/11/01 11:43:36;;;;;;;5.50;2.10;;;21.30;47.90;;;25.49;31.53;99625.53;5049384;28;19924;-15
2021/11/01 11:49:09;;;;;;;6.78;2.08;;;21.30;47.70;;;25.47;31.62;99635.56;5051197;28;20052;-15
2021/11/01 11:51:59;;;;;;;3.58;1.83;;;21.30;47.80;;;25.47;31.58;99630.19;5050170;28;20076;-15
2021/11/01 11:54:45;;;;;;;6.47;2.33;;;21.30;47.90;;;25.44;31.58;99635.84;5059817;28;20063;-15
2021/11/01 11:57:29;;;;;;;6.28;1.95;;;21.30;47.90;;;25.46;31.63;99632.06;5071146;28;20064;-15
2021/11/01 11:59:59;;;;;;;5.13;2.30;;;21.30;47.70;;;25.47;31.73;99625.69;5057685;28;20508;-19
2021/11/01 12:02:39;;;;;;;3.85;1.88;;;21.30;47.80;;;25.46;31.60;99616.00;5050256;28;20045;-19
2021/11/01 12:05:25;;;;;;;3.65;1.83;;;21.30;47.80;;;25.46;31.56;99618.66;5029974;28;20045;-13
2021/11/01 12:08:10;;;;;;;4.65;1.90;;;21.30;47.90;;;25.44;31.49;99603.75;5015081;28;20046;-14
2021/11/01 12:18:48;;;;;;;4.07;2.00;;;21.30;47.90;;;25.42;31.60;99614.59;5049348;28;20057;-15
2021/11/01 12:21:14;;;;;;;6.20;2.08;;;21.30;47.90;;;25.41;31.53;99610.28;5064034;28;20048;-13
2021/11/01 12:23:44;;;;;;;5.28;1.85;;;21.30;47.90;;;25.43;31.51;99612.78;5070980;28;20052;-13
2021/11/01 12:26:16;;;;;;;4.70;2.15;;;21.30;47.90;;;25.47;31.53;99614.97;5071575;28;20048;-13
2021/11/01 12:28:52;;;;;;;5.95;2.58;;;21.30;47.80;;;25.50;31.51;99619.19;5057263;28;20045;-13
2021/11/01 12:31:19;;;;;;;4.18;2.08;;;21.30;47.90;;;25.50;31.50;99619.19;5074018;28;20060;-13
2021/11/01 12:34:02;;;;;;;3.92;1.90;;;21.30;47.90;;;25.49;31.52;99618.38;5075103;28;20048;-13
2021/11/01 12:36:50;;;;;;;5.18;1.75;;;21.30;47.90;;;25.48;31.63;99621.19;5074592;28;20496;-13
2021/11/01 12:45:40;;;;;;;4.80;2.10;;;21.40;47.70;;;25.50;31.53;99628.06;5052970;28;20114;-21
2021/11/01 12:59:00;;;;;;;5.85;1.98;;;21.30;47.80;;;25.46;31.61;99631.19;5054935;28;20056;-15
2021/11/01 13:01:29;;;;;;;4.30;1.85;;;21.30;47.80;;;25.49;31.34;99625.53;5051181;28;20060;-14
2021/11/01 13:04:10;;;;;;;3.28;1.80;;;21.30;47.70;;;25.50;31.41;99637.94;5054221;28;20041;-14
2021/11/01 13:07:02;;;;;;;5.05;1.90;;;21.30;47.60;;;25.51;31.46;99632.44;5035139;28;20489;-15
2021/11/01 13:09:34;;;;;;;6.32;2.08;;;21.40;47.60;;;25.52;31.30;99630.56;5053069;28;20136;-22
2021/11/01 13:14:45;;;;;;;5.35;1.90;;;21.40;47.50;;;25.54;31.35;99644.63;5033854;28;20049;-15
2021/11/01 13:19:57;;;;;;;3.88;1.88;;;21.40;47.40;;;25.51;31.25;99640.44;5053079;28;20073;-14
2021/11/01 13:22:29;;;;;;;5.63;2.65;;;21.50;47.40;;;25.55;31.31;99635.63;5034888;28;20361;-14
2021/11/01 13:25:03;;;;;;;5.50;2.47;;;21.50;47.30;;;25.55;31.45;99635.63;5054691;28;20499;-14
2021/11/01 13:35:47;;;;;;;5.38;2.17;;;21.40;47.40;;;25.55;31.28;99658.88;5073100;28;20094;-14
2021/11/01 13:38:26;;;;;;;3.92;1.83;;;21.40;47.40;;;25.51;31.36;99658.34;5071404;28;20052;-14
2021/11/01 13:40:52;;;;;;;6.78;2.45;;;21.30;47.50;;;25.51;31.32;99664.53;5073161;28;20044;-14
2021/11/01 13:43:29;;;;;;;3.13;1.83;;;21.30;47.50;;;25.50;31.35;99664.69;5073307;28;20064;-15
2021/11/01 13:46:01;;;;;;;4.13;1.70;;;21.30;47.60;;;25.51;31.40;99671.75;5072902;28;20110;-15
2021/11/01 13:48:30;;;;;;;5.80;1.95;;;21.30;47.70;;;25.52;31.32;99681.44;5073195;28;20140;-14
2021/11/01 13:51:12;;;;;;;4.72;1.85;;;21.30;47.70;;;25.50;31.35;99672.72;5073358;28;20135;-14
2021/11/01 13:54:02;;;;;;;2.72;1.60;;;21.30;47.60;;;25.51;31.42;99682.44;5072352;28;20098;-15
2021/11/01 13:56:49;;;;;;;3.97;1.67;;;21.30;47.70;;;25.50;31.23;99678.91;5072881;28;20049;-15
2021/11/01 14:13:24;;;;;;;5.22;1.95;;;21.20;47.80;;;25.40;31.36;99701.41;5052708;28;20049;-14
2021/11/01 14:32:26;;;;;;;2.65;1.67;;;21.20;47.80;;;25.38;31.48;99690.00;5072665;28;20415;-13
2021/11/01 14:57:42;;;;;;;2.80;1.50;;;21.10;48.00;;;25.27;31.33;99701.75;5053028;28;20049;-12
2021/11/01 15:06:33;;;;;;;4.97;1.50;;;21.00;48.00;;;25.24;31.49;99710.91;5052657;28;20053;-13
2021/11/01 15:14:11;;;;;;;2.88;1.52;;;21.00;48.10;;;25.20;31.63;99711.34;5051708;28;20122;-13
2021/11/01 15:19:24;;;;;;;4.50;1.77;;;21.00;48.20;;;25.22;31.58;99736.94;5052360;28;20052;-13
2021/11/01 15:30:58;;;;;;;3.72;1.70;;;21.00;48.30;;;25.21;31.60;99737.09;5052983;28;20132;-13
2021/11/01 15:32:44;;;;;;;4.28;1.77;;;21.00;48.20;;;25.20;31.49;99740.78;5052830;28;20047;-10
2021/11/01 15:35:41;;;;;;;3.40;1.35;;;20.90;48.20;;;25.22;31.73;99733.44;5052265;28;20048;-11
2021/11/01 15:41:32;;;;;;;2.55;1.50;;;20.90;48.20;;;25.15;31.54;99726.00;5052972;28;20473;-11
2021/11/01 16:19:23;;;;;;;3.58;1.50;;;20.90;48.30;;;25.15;31.68;99746.56;5054113;28;20080;-13
2021/11/01 16:21:49;;;;;;;3.40;1.60;;;20.90;48.20;;;25.14;31.49;99750.22;5055342;28;20396;-12
2021/11/01 16:24:16;;;;;;;2.47;1.48;;;20.90;48.20;;;25.12;31.75;99752.22;5037762;28;20056;-12
2021/11/01 16:26:45;;;;;;;5.10;1.88;;;20.90;48.30;;;25.10;31.62;99752.38;5055640;28;20135;-13
2021/11/01 16:29:17;;;;;;;3.55;1.50;;;20.90;48.30;;;25.12;31.62;99758.41;5055468;28;20401;-12
2021/11/01 16:31:47;;;;;;;1.77;1.25;;;20.90;48.40;;;25.09;31.79;99756.06;5053542;28;20049;-12
2021/11/01 16:34:28;;;;;;;2.25;1.05;;;20.90;48.30;;;25.12;31.63;99753.06;5037817;28;20049;-13
2021/11/01 16:39:26;;;;;;;3.80;1.40;;;20.90;48.30;;;25.11;31.65;99758.59;5055111;28;20491;-13
2021/11/01 16:41:53;;;;;;;3.03;1.58;;;20.90;48.30;;;25.07;31.53;99749.97;5055494;28;20055;-13
2021/11/01 16:44:28;;;;;;;3.50;1.33;;;20.90;48.30;;;25.08;31.63;99756.19;5037771;28;20496;-13
2021/11/01 16:46:55;;;;;;;2.47;1.35;;;20.80;48.30;;;25.07;31.65;99744.63;5055044;28;20049;-13
2021/11/01 16:49:22;;;;;;;3.30;1.63;;;20.80;48.30;;;25.07;31.65;99752.66;5055208;28;20057;-13
2021/11/01 16:51:51;;;;;;;2.92;1.55;;;20.90;48.30;;;25.10;31.78;99765.75;5054747;28;20080;-13
2021/11/01 16:54:24;;;;;;;4.50;1.42;;;20.90;48.30;;;25.08;31.71;99761.53;5054875;28;20550;-13
2021/11/01 16:57:00;;;;;;;2.95;1.42;;;20.90;48.30;;;25.10;31.72;99765.75;5054849;28;20040;-13